Portada
METAR-TAF:

METAR-TAF

Aeroports :

Mogadixo, Somàlia

latitud: 02-02N, longitud: 045-21E, altitud: 9 m

Observació

L'informe es va fer fa 7 hores i 6 minuts, a les 14:00 UTC
Vent 10 kt del Sud
Temperatura 31°C
Humitat 66%
Pressió 1007 hPa
Visibilitat 10 km o més
Escasses núvols a una alçada de 2600 ft

METAR: HCMM 191400Z 17010KT 9999 FEW026 31/24 Q1007

Hora: 00:06 (21:06 UTC)


TAF: manca

Observacions i pronòstics meteorològics de més de 4000 aeroports (METAR i TAF).

Les estacions disponibles són els punts grocs i vermells al mapa.

Posi el ratolí al punt desitjat per veure el nom de l'estació.

Feu clic per veure les observacions i els pronòstics meteorològics.

Per canviar el mapa: feu clic els botons verds amb una creu de color negre per apropar; al botó verd amb un guió per allunyar la imatge; o en les fletxes verdes per a mapes adjacents.


METAR-TAF: